Melrose, Kansas
Current Conditions -  °F | °C
As of 4:53 AM on Friday 19 Dec 2014 (Local Time) from KJLN Reporting Station
Moderate Fog Moderate Fog  
Wind Chill: 30°   Ceiling: 200
Heat Index: 36°   Visibility: 0.5mi
Dew Point: 35°   Wind: 7mph
Humidity: 97%   Direction: 20°NNE
Pressure: 30.19"   Gusts: NA
Location:  37.0587°N, 94.8848°W
Report Text: KJLN 191053Z AUTO 02006KT 1/2SM FG VV002 02/02 A3019 RMK AO2 SLP229 T00220017
Loading
Personal Weather Stations






























Interactive Weather Map New forecast layout! Learn more

10-Day Weather Forecast

Advertisements
Track Severe Weather on mobile